PWSweather.com
Personal Weather Stations
Station Observations

SkegnessGB

Lat: 53.147585, Lon: 0.345774

Elevation: 18

Station Type: Fine Offset WH3080

http://www.skegnessweather.info/

High Low Average
Temperature 65.8°F18.8°F 49.8°F9.9°F 58.6°F14.8°F
Dew Point 60.1°F15.6°F 49.8°F9.9°F 56.7°F13.7°F
Winds 15.8 mph SW25.4 mph SW Calm Calm 8.8 mph 14.2 mph
Wind Gusts 20.2 mph32.5 mph 0.7 mph1.1 mph 10.7 mph17.2 mph
Humidity 100% 74% 94%
Pressure 30.09 in1019.00 in 29.92 in1013.20 in -
Precipitation 1.11 in28.20 in - -
Hour Temp Dew Point Humidity Winds Wind Gusts Pressure Precip Precip Rate Daily Precip Total
12:00 AM 56.5°F13.6°C 55.4°F13.0°C 96% 11.7 mph S18.8 kmh S 12.5 mph20.1 kmh 29.96 in1014.6 mb 0.00 in0.0 mm 0.00 in0.0 mm 0.00 in0.0 mm
12:10 AM 56.7°F13.7°C 55.5°F13.1°C 96% 12.4 mph SSE20.0 kmh SSE 14.3 mph23.0 kmh 29.96 in1014.6 mb 0.00 in0.0 mm 0.00 in0.0 mm 0.00 in0.0 mm
12:20 AM 56.7°F13.7°C 55.5°F13.1°C 96% 11.7 mph S18.8 kmh S 12.5 mph20.1 kmh 29.96 in1014.6 mb 0.00 in0.0 mm 0.00 in0.0 mm 0.00 in0.0 mm
12:30 AM 56.7°F13.7°C 55.5°F13.1°C 96% 11.7 mph S18.8 kmh S 14.3 mph23.0 kmh 29.96 in1014.6 mb 0.00 in0.0 mm 0.00 in0.0 mm 0.00 in0.0 mm
12:40 AM 56.7°F13.7°C 55.5°F13.1°C 96% 11.9 mph S19.2 kmh S 11.8 mph19.0 kmh 29.96 in1014.6 mb 0.00 in0.0 mm 0.00 in0.0 mm 0.00 in0.0 mm
12:50 AM 56.8°F13.8°C 55.7°F13.2°C 96% 11.4 mph SE18.3 kmh SE 11.8 mph19.0 kmh 29.96 in1014.6 mb 0.00 in0.0 mm 0.00 in0.0 mm 0.00 in0.0 mm
01:00 AM 56.8°F13.8°C 55.7°F13.2°C 96% 12.3 mph SE19.8 kmh SE 12.5 mph20.1 kmh 29.96 in1014.6 mb 0.00 in0.0 mm 0.00 in0.0 mm 0.00 in0.0 mm
01:10 AM 56.8°F13.8°C 55.7°F13.2°C 96% 10.2 mph S16.4 kmh S 10.8 mph17.4 kmh 29.95 in1014.2 mb 0.00 in0.0 mm 0.00 in0.0 mm 0.00 in0.0 mm
01:20 AM 56.8°F13.8°C 55.7°F13.2°C 96% 12.5 mph ESE20.1 kmh ESE 15.0 mph24.1 kmh 29.96 in1014.6 mb 0.00 in0.0 mm 0.00 in0.0 mm 0.00 in0.0 mm
01:30 AM 56.8°F13.8°C 55.7°F13.2°C 96% 10.9 mph SE17.5 kmh SE 15.0 mph24.1 kmh 29.95 in1014.2 mb 0.00 in0.0 mm 0.00 in0.0 mm 0.00 in0.0 mm
01:40 AM 56.8°F13.8°C 55.4°F13.0°C 95% 10.7 mph S17.2 kmh S 11.8 mph19.0 kmh 29.95 in1014.2 mb 0.00 in0.0 mm 0.00 in0.0 mm 0.00 in0.0 mm
01:50 AM 56.8°F13.8°C 55.7°F13.2°C 96% 9.7 mph S15.6 kmh S 11.8 mph19.0 kmh 29.96 in1014.6 mb 0.00 in0.0 mm 0.00 in0.0 mm 0.00 in0.0 mm
02:00 AM 56.8°F13.8°C 55.7°F13.2°C 96% 9.5 mph S15.3 kmh S 11.8 mph19.0 kmh 29.95 in1014.2 mb 0.00 in0.0 mm 0.00 in0.0 mm 0.00 in0.0 mm
02:10 AM 56.8°F13.8°C 55.7°F13.2°C 96% 9.9 mph SSW15.9 kmh SSW 10.1 mph16.3 kmh 29.95 in1014.2 mb 0.00 in0.0 mm 0.00 in0.0 mm 0.00 in0.0 mm
02:20 AM 56.8°F13.8°C 55.7°F13.2°C 96% 9.8 mph SSE15.8 kmh SSE 11.8 mph19.0 kmh 29.95 in1014.2 mb 0.00 in0.0 mm 0.00 in0.0 mm 0.00 in0.0 mm
02:30 AM 56.8°F13.8°C 55.7°F13.2°C 96% 9.4 mph SSE15.1 kmh SSE 14.3 mph23.0 kmh 29.95 in1014.2 mb 0.00 in0.0 mm 0.00 in0.0 mm 0.00 in0.0 mm
02:40 AM 56.8°F13.8°C 55.7°F13.2°C 96% 9.9 mph S15.9 kmh S 12.5 mph20.1 kmh 29.95 in1014.2 mb 0.00 in0.0 mm 0.00 in0.0 mm 0.00 in0.0 mm
02:50 AM 56.8°F13.8°C 55.7°F13.2°C 96% 7.9 mph S12.7 kmh S 10.1 mph16.3 kmh 29.95 in1014.2 mb 0.00 in0.0 mm 0.00 in0.0 mm 0.00 in0.0 mm
03:00 AM 56.5°F13.6°C 56.2°F13.4°C 99% 8.4 mph S13.5 kmh S 9.1 mph14.6 kmh 29.95 in1014.2 mb 0.00 in0.0 mm 0.00 in0.0 mm 0.00 in0.0 mm
03:10 AM 55.9°F13.3°C 56.0°F13.3°C 100% 8.1 mph SSE13.0 kmh SSE 10.1 mph16.3 kmh 29.95 in1014.2 mb 0.01 in0.3 mm 0.06 in1.5 mm 0.01 in0.3 mm
03:20 AM 55.8°F13.2°C 55.8°F13.2°C 100% 9.0 mph SE14.5 kmh SE 10.8 mph17.4 kmh 29.94 in1013.9 mb 0.01 in0.3 mm 0.00 in0.0 mm 0.01 in0.3 mm
03:30 AM 55.8°F13.2°C 55.8°F13.2°C 100% 9.3 mph S15.0 kmh S 13.3 mph21.4 kmh 29.94 in1013.9 mb 0.01 in0.3 mm 0.00 in0.0 mm 0.01 in0.3 mm
03:40 AM 55.8°F13.2°C 55.8°F13.2°C 100% 11.1 mph S17.9 kmh S 12.5 mph20.1 kmh 29.93 in1013.5 mb 0.01 in0.3 mm 0.00 in0.0 mm 0.01 in0.3 mm
03:50 AM 55.8°F13.2°C 55.8°F13.2°C 100% 10.5 mph SE16.9 kmh SE 11.8 mph19.0 kmh 29.93 in1013.5 mb 0.01 in0.3 mm 0.00 in0.0 mm 0.01 in0.3 mm
04:00 AM 56.1°F13.4°C 56.1°F13.4°C 100% 11.7 mph S18.8 kmh S 14.3 mph23.0 kmh 29.93 in1013.5 mb 0.01 in0.3 mm 0.00 in0.0 mm 0.01 in0.3 mm
04:10 AM 56.5°F13.6°C 56.5°F13.6°C 100% 12.9 mph WSW20.8 kmh WSW 14.3 mph23.0 kmh 29.93 in1013.5 mb 0.00 in0.0 mm 0.00 in0.0 mm 0.01 in0.3 mm
04:20 AM 56.7°F13.7°C 56.7°F13.7°C 100% 11.6 mph S18.7 kmh S 13.3 mph21.4 kmh 29.93 in1013.5 mb 0.00 in0.0 mm 0.00 in0.0 mm 0.01 in0.3 mm
04:30 AM 56.8°F13.8°C 56.9°F13.8°C 100% 12.3 mph S19.8 kmh S 16.0 mph25.7 kmh 29.93 in1013.5 mb 0.00 in0.0 mm 0.00 in0.0 mm 0.01 in0.3 mm
04:40 AM 57.2°F14.0°C 57.2°F14.0°C 100% 13.0 mph S20.9 kmh S 16.0 mph25.7 kmh 29.93 in1013.5 mb 0.00 in0.0 mm 0.00 in0.0 mm 0.01 in0.3 mm
04:50 AM 57.2°F14.0°C 57.2°F14.0°C 100% 12.1 mph S19.5 kmh S 12.5 mph20.1 kmh 29.93 in1013.5 mb 0.00 in0.0 mm 0.00 in0.0 mm 0.01 in0.3 mm
05:00 AM 57.4°F14.1°C 57.4°F14.1°C 100% 11.7 mph S18.8 kmh S 13.3 mph21.4 kmh 29.92 in1013.2 mb 0.00 in0.0 mm 0.00 in0.0 mm 0.01 in0.3 mm
05:10 AM 57.6°F14.2°C 57.6°F14.2°C 100% 12.0 mph SSE19.3 kmh SSE 13.3 mph21.4 kmh 29.93 in1013.5 mb 0.00 in0.0 mm 0.00 in0.0 mm 0.01 in0.3 mm
05:20 AM 57.6°F14.2°C 57.6°F14.2°C 100% 10.9 mph SE17.5 kmh SE 11.8 mph19.0 kmh 29.93 in1013.5 mb 0.00 in0.0 mm 0.00 in0.0 mm 0.01 in0.3 mm
05:30 AM 57.6°F14.2°C 57.6°F14.2°C 100% 10.9 mph S17.5 kmh S 12.5 mph20.1 kmh 29.93 in1013.5 mb 0.00 in0.0 mm 0.00 in0.0 mm 0.01 in0.3 mm
05:40 AM 57.7°F14.3°C 57.8°F14.3°C 100% 12.3 mph S19.8 kmh S 14.3 mph23.0 kmh 29.93 in1013.5 mb 0.00 in0.0 mm 0.00 in0.0 mm 0.01 in0.3 mm
05:50 AM 57.7°F14.3°C 57.5°F14.2°C 99% 10.9 mph SSE17.5 kmh SSE 14.3 mph23.0 kmh 29.93 in1013.5 mb 0.00 in0.0 mm 0.00 in0.0 mm 0.01 in0.3 mm
06:00 AM 57.9°F14.4°C 57.7°F14.3°C 99% 11.6 mph SSE18.7 kmh SSE 12.5 mph20.1 kmh 29.94 in1013.9 mb 0.00 in0.0 mm 0.00 in0.0 mm 0.01 in0.3 mm
06:10 AM 58.1°F14.5°C 57.8°F14.3°C 99% 7.8 mph SE12.6 kmh SE 12.5 mph20.1 kmh 29.93 in1013.5 mb 0.00 in0.0 mm 0.00 in0.0 mm 0.01 in0.3 mm
06:20 AM 58.1°F14.5°C 57.8°F14.3°C 99% 10.8 mph SSE17.4 kmh SSE 14.3 mph23.0 kmh 29.93 in1013.5 mb 0.00 in0.0 mm 0.00 in0.0 mm 0.01 in0.3 mm
06:30 AM 58.3°F14.6°C 58.0°F14.4°C 99% 10.0 mph S16.1 kmh S 11.8 mph19.0 kmh 29.93 in1013.5 mb 0.00 in0.0 mm 0.00 in0.0 mm 0.01 in0.3 mm
06:40 AM 58.5°F14.7°C 58.2°F14.6°C 99% 10.5 mph SSE16.9 kmh SSE 11.8 mph19.0 kmh 29.93 in1013.5 mb 0.00 in0.0 mm 0.00 in0.0 mm 0.01 in0.3 mm
06:50 AM 58.6°F14.8°C 58.4°F14.7°C 99% 10.8 mph SSE17.4 kmh SSE 11.8 mph19.0 kmh 29.93 in1013.5 mb 0.00 in0.0 mm 0.00 in0.0 mm 0.01 in0.3 mm
07:00 AM 59.0°F15.0°C 58.2°F14.6°C 97% 11.7 mph SSE18.8 kmh SSE 14.3 mph23.0 kmh 29.93 in1013.5 mb 0.00 in0.0 mm 0.00 in0.0 mm 0.01 in0.3 mm
07:10 AM 59.0°F15.0°C 57.9°F14.4°C 96% 11.5 mph SSE18.5 kmh SSE 10.8 mph17.4 kmh 29.94 in1013.9 mb 0.00 in0.0 mm 0.00 in0.0 mm 0.01 in0.3 mm
07:20 AM 59.2°F15.1°C 58.1°F14.5°C 96% 12.4 mph S20.0 kmh S 14.3 mph23.0 kmh 29.94 in1013.9 mb 0.00 in0.0 mm 0.00 in0.0 mm 0.01 in0.3 mm
07:30 AM 59.5°F15.3°C 58.4°F14.7°C 96% 12.6 mph S20.3 kmh S 13.3 mph21.4 kmh 29.93 in1013.5 mb 0.00 in0.0 mm 0.00 in0.0 mm 0.01 in0.3 mm
07:40 AM 60.1°F15.6°C 58.7°F14.8°C 95% 13.4 mph SSE21.6 kmh SSE 14.3 mph23.0 kmh 29.94 in1013.9 mb 0.00 in0.0 mm 0.00 in0.0 mm 0.01 in0.3 mm
07:50 AM 60.4°F15.8°C 58.4°F14.7°C 93% 14.0 mph S22.5 kmh S 16.0 mph25.7 kmh 29.93 in1013.5 mb 0.00 in0.0 mm 0.00 in0.0 mm 0.01 in0.3 mm
08:00 AM 60.3°F15.7°C 58.5°F14.7°C 94% 14.2 mph S22.9 kmh S 16.0 mph25.7 kmh 29.94 in1013.9 mb 0.00 in0.0 mm 0.00 in0.0 mm 0.01 in0.3 mm
08:10 AM 60.3°F15.7°C 58.5°F14.7°C 94% 15.8 mph SW25.4 kmh SW 16.0 mph25.7 kmh 29.93 in1013.5 mb 0.00 in0.0 mm 0.00 in0.0 mm 0.01 in0.3 mm
08:20 AM 60.1°F15.6°C 58.4°F14.7°C 94% 13.9 mph SE22.4 kmh SE 16.7 mph26.9 kmh 29.93 in1013.5 mb 0.00 in0.0 mm 0.00 in0.0 mm 0.01 in0.3 mm
08:30 AM 60.3°F15.7°C 58.5°F14.7°C 94% 13.4 mph S21.6 kmh S 14.3 mph23.0 kmh 29.93 in1013.5 mb 0.00 in0.0 mm 0.00 in0.0 mm 0.01 in0.3 mm
08:40 AM 60.6°F15.9°C 58.9°F14.9°C 94% 14.2 mph SSE22.9 kmh SSE 17.5 mph28.2 kmh 29.93 in1013.5 mb 0.00 in0.0 mm 0.00 in0.0 mm 0.01 in0.3 mm
08:50 AM 61.0°F16.1°C 59.0°F15.0°C 93% 12.5 mph SSW20.1 kmh SSW 14.3 mph23.0 kmh 29.93 in1013.5 mb 0.00 in0.0 mm 0.00 in0.0 mm 0.01 in0.3 mm
09:00 AM 61.3°F16.3°C 59.0°F15.0°C 92% 14.9 mph SSE24.0 kmh SSE 19.2 mph30.9 kmh 29.93 in1013.5 mb 0.00 in0.0 mm 0.00 in0.0 mm 0.01 in0.3 mm
09:10 AM 61.9°F16.6°C 59.5°F15.3°C 92% 15.2 mph S24.5 kmh S 19.2 mph30.9 kmh 29.93 in1013.5 mb 0.00 in0.0 mm 0.00 in0.0 mm 0.01 in0.3 mm
09:20 AM 62.2°F16.8°C 59.3°F15.2°C 90% 15.5 mph S24.9 kmh S 16.0 mph25.7 kmh 29.93 in1013.5 mb 0.00 in0.0 mm 0.00 in0.0 mm 0.01 in0.3 mm
09:30 AM 62.4°F16.9°C 59.5°F15.3°C 90% 14.7 mph SSE23.7 kmh SSE 15.0 mph24.1 kmh 29.92 in1013.2 mb 0.00 in0.0 mm 0.00 in0.0 mm 0.01 in0.3 mm
09:40 AM 62.8°F17.1°C 59.2°F15.1°C 88% 14.9 mph SSE24.0 kmh SSE 17.5 mph28.2 kmh 29.92 in1013.2 mb 0.00 in0.0 mm 0.00 in0.0 mm 0.01 in0.3 mm
09:50 AM 63.5°F17.5°C 58.6°F14.8°C 84% 11.6 mph S18.7 kmh S 15.0 mph24.1 kmh 29.92 in1013.2 mb 0.00 in0.0 mm 0.00 in0.0 mm 0.01 in0.3 mm
10:00 AM 63.3°F17.4°C 59.4°F15.2°C 87% 14.3 mph S23.0 kmh S 15.0 mph24.1 kmh 29.92 in1013.2 mb 0.00 in0.0 mm 0.00 in0.0 mm 0.01 in0.3 mm
10:03 AM 63.3°F17.4°C 59.1°F15.1°C 86% 14.9 mph S24.0 kmh S 16.0 mph25.7 kmh 29.92 in1013.2 mb 0.00 in0.0 mm 0.00 in0.0 mm 0.01 in0.3 mm
10:20 AM 62.8°F17.1°C 58.5°F14.7°C 86% 14.9 mph S24.0 kmh S 17.5 mph28.2 kmh 29.92 in1013.2 mb 0.00 in0.0 mm 0.00 in0.0 mm 0.01 in0.3 mm
10:30 AM 62.4°F16.9°C 58.5°F14.7°C 87% 14.8 mph E23.8 kmh E 20.2 mph32.5 kmh 29.92 in1013.2 mb 0.00 in0.0 mm 0.00 in0.0 mm 0.01 in0.3 mm
10:40 AM 62.2°F16.8°C 58.7°F14.8°C 88% 13.8 mph S22.2 kmh S 16.0 mph25.7 kmh 29.92 in1013.2 mb 0.00 in0.0 mm 0.00 in0.0 mm 0.01 in0.3 mm
11:00 AM 62.6°F17.0°C 58.7°F14.8°C 87% 14.5 mph S23.3 kmh S 16.0 mph25.7 kmh 29.93 in1013.5 mb 0.00 in0.0 mm 0.00 in0.0 mm 0.01 in0.3 mm
11:10 AM 63.5°F17.5°C 58.3°F14.6°C 83% 13.3 mph SSE21.4 kmh SSE 13.3 mph21.4 kmh 29.93 in1013.5 mb 0.00 in0.0 mm 0.00 in0.0 mm 0.01 in0.3 mm
11:20 AM 63.3°F17.4°C 58.4°F14.7°C 84% 12.5 mph SSE20.1 kmh SSE 12.5 mph20.1 kmh 29.93 in1013.5 mb 0.00 in0.0 mm 0.00 in0.0 mm 0.01 in0.3 mm
11:30 AM 63.7°F17.6°C 56.7°F13.7°C 78% 14.1 mph SSE22.7 kmh SSE 16.7 mph26.9 kmh 29.92 in1013.2 mb 0.00 in0.0 mm 0.00 in0.0 mm 0.01 in0.3 mm
11:40 AM 63.9°F17.7°C 56.5°F13.6°C 77% 12.5 mph SSE20.1 kmh SSE 16.7 mph26.9 kmh 29.92 in1013.2 mb 0.00 in0.0 mm 0.00 in0.0 mm 0.01 in0.3 mm
11:50 AM 63.9°F17.7°C 56.9°F13.8°C 78% 12.8 mph S20.6 kmh S 15.0 mph24.1 kmh 29.93 in1013.5 mb 0.00 in0.0 mm 0.00 in0.0 mm 0.01 in0.3 mm
12:00 PM 64.4°F18.0°C 56.7°F13.7°C 76% 14.8 mph SSE23.8 kmh SSE 17.5 mph28.2 kmh 29.93 in1013.5 mb 0.00 in0.0 mm 0.00 in0.0 mm 0.01 in0.3 mm
12:10 PM 65.5°F18.6°C 57.0°F13.9°C 74% 12.7 mph ENE20.4 kmh ENE 15.0 mph24.1 kmh 29.93 in1013.5 mb 0.00 in0.0 mm 0.00 in0.0 mm 0.01 in0.3 mm
12:20 PM 65.8°F18.8°C 57.3°F14.1°C 74% 11.3 mph S18.2 kmh S 15.0 mph24.1 kmh 29.93 in1013.5 mb 0.00 in0.0 mm 0.00 in0.0 mm 0.01 in0.3 mm
12:30 PM 65.3°F18.5°C 57.2°F14.0°C 75% 12.3 mph SSE19.8 kmh SSE 15.0 mph24.1 kmh 29.93 in1013.5 mb 0.00 in0.0 mm 0.00 in0.0 mm 0.01 in0.3 mm
12:40 PM 65.1°F18.4°C 57.0°F13.9°C 75% 13.3 mph SSW21.4 kmh SSW 16.7 mph26.9 kmh 29.92 in1013.2 mb 0.00 in0.0 mm 0.00 in0.0 mm 0.01 in0.3 mm
12:50 PM 65.1°F18.4°C 57.4°F14.1°C 76% 11.5 mph S18.5 kmh S 15.0 mph24.1 kmh 29.92 in1013.2 mb 0.00 in0.0 mm 0.00 in0.0 mm 0.01 in0.3 mm
01:00 PM 64.8°F18.2°C 57.0°F13.9°C 76% 13.6 mph S21.9 kmh S 16.0 mph25.7 kmh 29.93 in1013.5 mb 0.00 in0.0 mm 0.00 in0.0 mm 0.01 in0.3 mm
01:10 PM 64.8°F18.2°C 57.8°F14.3°C 78% 11.5 mph S18.5 kmh S 11.8 mph19.0 kmh 29.93 in1013.5 mb 0.00 in0.0 mm 0.00 in0.0 mm 0.01 in0.3 mm
01:20 PM 64.9°F18.3°C 58.3°F14.6°C 79% 9.6 mph SW15.4 kmh SW 12.5 mph20.1 kmh 29.93 in1013.5 mb 0.00 in0.0 mm 0.00 in0.0 mm 0.01 in0.3 mm
01:30 PM 64.9°F18.3°C 57.9°F14.4°C 78% 12.9 mph SSW20.8 kmh SSW 15.0 mph24.1 kmh 29.93 in1013.5 mb 0.00 in0.0 mm 0.00 in0.0 mm 0.01 in0.3 mm
01:40 PM 65.3°F18.5°C 58.6°F14.8°C 79% 10.5 mph S16.9 kmh S 15.0 mph24.1 kmh 29.93 in1013.5 mb 0.00 in0.0 mm 0.00 in0.0 mm 0.01 in0.3 mm
01:50 PM 65.1°F18.4°C 58.1°F14.5°C 78% 12.8 mph SSE20.6 kmh SSE 16.0 mph25.7 kmh 29.93 in1013.5 mb 0.00 in0.0 mm 0.00 in0.0 mm 0.01 in0.3 mm
02:00 PM 65.5°F18.6°C 58.1°F14.5°C 77% 11.6 mph SSE18.7 kmh SSE 12.5 mph20.1 kmh 29.93 in1013.5 mb 0.00 in0.0 mm 0.00 in0.0 mm 0.01 in0.3 mm
02:10 PM 65.5°F18.6°C 58.5°F14.7°C 78% 10.4 mph S16.7 kmh S 12.5 mph20.1 kmh 29.94 in1013.9 mb 0.00 in0.0 mm 0.00 in0.0 mm 0.01 in0.3 mm
02:20 PM 65.1°F18.4°C 58.5°F14.7°C 79% 12.4 mph S20.0 kmh S 15.0 mph24.1 kmh 29.94 in1013.9 mb 0.00 in0.0 mm 0.00 in0.0 mm 0.01 in0.3 mm
02:30 PM 64.8°F18.2°C 58.8°F14.9°C 81% 10.1 mph S16.3 kmh S 11.8 mph19.0 kmh 29.94 in1013.9 mb 0.00 in0.0 mm 0.00 in0.0 mm 0.01 in0.3 mm
02:40 PM 64.6°F18.1°C 59.0°F15.0°C 82% 10.8 mph SW17.4 kmh SW 12.5 mph20.1 kmh 29.94 in1013.9 mb 0.00 in0.0 mm 0.00 in0.0 mm 0.01 in0.3 mm
02:50 PM 64.4°F18.0°C 58.8°F14.9°C 82% 9.9 mph S15.9 kmh S 13.3 mph21.4 kmh 29.94 in1013.9 mb 0.00 in0.0 mm 0.00 in0.0 mm 0.01 in0.3 mm
03:00 PM 63.9°F17.7°C 58.3°F14.6°C 82% 11.8 mph SSW19.0 kmh SSW 12.5 mph20.1 kmh 29.94 in1013.9 mb 0.00 in0.0 mm 0.00 in0.0 mm 0.01 in0.3 mm
03:10 PM 63.9°F17.7°C 58.6°F14.8°C 83% 10.4 mph S16.7 kmh S 10.8 mph17.4 kmh 29.94 in1013.9 mb 0.00 in0.0 mm 0.00 in0.0 mm 0.01 in0.3 mm
03:20 PM 63.7°F17.6°C 58.4°F14.7°C 83% 8.0 mph SW12.9 kmh SW 12.5 mph20.1 kmh 29.94 in1013.9 mb 0.00 in0.0 mm 0.00 in0.0 mm 0.01 in0.3 mm
03:30 PM 63.3°F17.4°C 59.4°F15.2°C 87% 10.1 mph S16.3 kmh S 10.1 mph16.3 kmh 29.94 in1013.9 mb 0.00 in0.0 mm 0.00 in0.0 mm 0.01 in0.3 mm
03:40 PM 63.1°F17.3°C 59.9°F15.5°C 89% 8.4 mph S13.5 kmh S 10.8 mph17.4 kmh 29.94 in1013.9 mb 0.00 in0.0 mm 0.00 in0.0 mm 0.01 in0.3 mm
03:50 PM 62.4°F16.9°C 59.8°F15.4°C 91% 6.9 mph SSW11.1 kmh SSW 9.1 mph14.6 kmh 29.94 in1013.9 mb 0.00 in0.0 mm 0.00 in0.0 mm 0.01 in0.3 mm
04:00 PM 61.5°F16.4°C 59.8°F15.4°C 94% 6.8 mph SSW10.9 kmh SSW 10.1 mph16.3 kmh 29.95 in1014.2 mb 0.00 in0.0 mm 0.00 in0.0 mm 0.01 in0.3 mm
04:10 PM 60.8°F16.0°C 59.7°F15.4°C 96% 8.0 mph SE12.9 kmh SE 10.1 mph16.3 kmh 29.95 in1014.2 mb 0.00 in0.0 mm 0.00 in0.0 mm 0.01 in0.3 mm
04:20 PM 60.6°F15.9°C 59.8°F15.4°C 97% 8.5 mph S13.7 kmh S 10.8 mph17.4 kmh 29.95 in1014.2 mb 0.00 in0.0 mm 0.00 in0.0 mm 0.01 in0.3 mm
04:30 PM 60.4°F15.8°C 59.9°F15.5°C 98% 7.4 mph WSW11.9 kmh WSW 8.4 mph13.5 kmh 29.95 in1014.2 mb 0.00 in0.0 mm 0.00 in0.0 mm 0.01 in0.3 mm
04:40 PM 60.1°F15.6°C 60.1°F15.6°C 100% 8.2 mph S13.2 kmh S 10.8 mph17.4 kmh 29.94 in1013.9 mb 0.00 in0.0 mm 0.00 in0.0 mm 0.01 in0.3 mm
04:50 PM 59.7°F15.4°C 59.7°F15.4°C 100% 8.2 mph S13.2 kmh S 10.8 mph17.4 kmh 29.95 in1014.2 mb 0.01 in0.3 mm 0.06 in1.5 mm 0.02 in0.5 mm
05:00 PM 59.4°F15.2°C 59.4°F15.2°C 100% 7.3 mph S11.7 kmh S 10.8 mph17.4 kmh 29.95 in1014.2 mb 0.01 in0.3 mm 0.00 in0.0 mm 0.02 in0.5 mm
05:10 PM 59.4°F15.2°C 59.4°F15.2°C 100% 7.3 mph S11.7 kmh S 8.4 mph13.5 kmh 29.95 in1014.2 mb 0.01 in0.3 mm 0.00 in0.0 mm 0.02 in0.5 mm
05:20 PM 59.4°F15.2°C 59.4°F15.2°C 100% 8.3 mph SE13.4 kmh SE 10.1 mph16.3 kmh 29.95 in1014.2 mb 0.01 in0.3 mm 0.00 in0.0 mm 0.02 in0.5 mm
05:30 PM 59.4°F15.2°C 59.4°F15.2°C 100% 6.9 mph SSE11.1 kmh SSE 7.6 mph12.2 kmh 29.96 in1014.6 mb 0.01 in0.3 mm 0.00 in0.0 mm 0.02 in0.5 mm
05:40 PM 59.4°F15.2°C 59.4°F15.2°C 100% 6.8 mph SSE10.9 kmh SSE 9.1 mph14.6 kmh 29.96 in1014.6 mb 0.01 in0.3 mm 0.00 in0.0 mm 0.02 in0.5 mm
05:50 PM 59.4°F15.2°C 59.4°F15.2°C 100% 6.3 mph S10.1 kmh S 9.1 mph14.6 kmh 29.96 in1014.6 mb 0.01 in0.3 mm 0.00 in0.0 mm 0.04 in1.0 mm
06:00 PM 59.0°F15.0°C 59.0°F15.0°C 100% 7.4 mph SSE11.9 kmh SSE 8.4 mph13.5 kmh 29.96 in1014.6 mb 0.04 in1.0 mm 0.04 in1.0 mm 0.06 in1.5 mm
06:10 PM 59.0°F15.0°C 59.0°F15.0°C 100% 6.4 mph N10.3 kmh N 5.9 mph9.5 kmh 29.97 in1014.9 mb 0.06 in1.5 mm 0.12 in3.0 mm 0.08 in2.0 mm
06:20 PM 58.8°F14.9°C 58.8°F14.9°C 100% 5.7 mph SW9.2 kmh SW 8.4 mph13.5 kmh 29.99 in1015.6 mb 0.08 in2.0 mm 0.12 in3.0 mm 0.11 in2.8 mm
06:30 PM 57.0°F13.9°C 57.0°F13.9°C 100% 2.1 mph S3.4 kmh S 4.9 mph7.9 kmh 29.99 in1015.6 mb 0.13 in3.3 mm 0.30 in7.6 mm 0.15 in3.8 mm
06:40 PM 56.1°F13.4°C 56.1°F13.4°C 100% 1.6 mph SSW2.6 kmh SSW 3.4 mph5.5 kmh 29.99 in1015.6 mb 0.15 in3.8 mm 0.12 in3.0 mm 0.18 in4.6 mm
06:50 PM 55.8°F13.2°C 55.8°F13.2°C 100% 1.1 mph SE1.8 kmh SE 3.4 mph5.5 kmh 30.00 in1015.9 mb 0.15 in3.8 mm 0.00 in0.0 mm 0.19 in4.8 mm
07:00 PM 55.4°F13.0°C 55.4°F13.0°C 100% 1.2 mph WSW1.9 kmh WSW 2.5 mph4.0 kmh 30.00 in1015.9 mb 0.13 in3.3 mm 0.00 in0.0 mm 0.19 in4.8 mm
07:10 PM 55.4°F13.0°C 55.4°F13.0°C 100% 1.1 mph NW1.8 kmh NW 3.4 mph5.5 kmh 30.01 in1016.3 mb 0.11 in2.8 mm 0.00 in0.0 mm 0.19 in4.8 mm
07:20 PM 55.4°F13.0°C 55.4°F13.0°C 100% 0.6 mph SW1.0 kmh SW 2.5 mph4.0 kmh 30.01 in1016.3 mb 0.08 in2.0 mm 0.00 in0.0 mm 0.19 in4.8 mm
07:30 PM 55.2°F12.9°C 55.2°F12.9°C 100% 0.2 mph WSW0.3 kmh WSW 1.7 mph2.7 kmh 30.01 in1016.3 mb 0.04 in1.0 mm 0.00 in0.0 mm 0.19 in4.8 mm
07:40 PM 55.2°F12.9°C 55.2°F12.9°C 100% Calm Calm 0.7 mph1.1 kmh 30.01 in1016.3 mb 0.01 in0.3 mm 0.00 in0.0 mm 0.19 in4.8 mm
07:50 PM 54.9°F12.7°C 54.9°F12.7°C 100% 0.3 mph WNW0.5 kmh WNW 1.7 mph2.7 kmh 30.02 in1016.6 mb 0.00 in0.0 mm 0.00 in0.0 mm 0.19 in4.8 mm
08:00 PM 54.7°F12.6°C 54.7°F12.6°C 100% 0.2 mph SW0.3 kmh SW 0.7 mph1.1 kmh 30.03 in1016.9 mb 0.00 in0.0 mm 0.00 in0.0 mm 0.19 in4.8 mm
08:10 PM 54.5°F12.5°C 54.5°F12.5°C 100% 0.7 mph SSW1.1 kmh SSW 1.7 mph2.7 kmh 30.03 in1016.9 mb 0.00 in0.0 mm 0.00 in0.0 mm 0.19 in4.8 mm
08:20 PM 54.3°F12.4°C 54.3°F12.4°C 100% 1.3 mph S2.1 kmh S 2.5 mph4.0 kmh 30.03 in1016.9 mb 0.00 in0.0 mm 0.00 in0.0 mm 0.19 in4.8 mm
08:30 PM 54.1°F12.3°C 54.1°F12.3°C 100% 1.3 mph SW2.1 kmh SW 2.5 mph4.0 kmh 30.04 in1017.3 mb 0.00 in0.0 mm 0.00 in0.0 mm 0.19 in4.8 mm
08:40 PM 53.8°F12.1°C 53.8°F12.1°C 100% 0.9 mph S1.4 kmh S 1.7 mph2.7 kmh 30.04 in1017.3 mb 0.00 in0.0 mm 0.00 in0.0 mm 0.19 in4.8 mm
08:50 PM 53.6°F12.0°C 53.6°F12.0°C 100% 1.0 mph SW1.6 kmh SW 1.7 mph2.7 kmh 30.03 in1016.9 mb 0.00 in0.0 mm 0.00 in0.0 mm 0.19 in4.8 mm
09:00 PM 53.4°F11.9°C 53.4°F11.9°C 100% 1.2 mph SW1.9 kmh SW 2.5 mph4.0 kmh 30.04 in1017.3 mb 0.00 in0.0 mm 0.00 in0.0 mm 0.19 in4.8 mm
09:10 PM 53.2°F11.8°C 53.2°F11.8°C 100% 1.1 mph S1.8 kmh S 1.7 mph2.7 kmh 30.04 in1017.3 mb 0.00 in0.0 mm 0.00 in0.0 mm 0.19 in4.8 mm
09:20 PM 53.1°F11.7°C 53.1°F11.7°C 100% 1.4 mph S2.3 kmh S 2.5 mph4.0 kmh 30.04 in1017.3 mb 0.00 in0.0 mm 0.00 in0.0 mm 0.19 in4.8 mm
09:30 PM 52.7°F11.5°C 52.7°F11.5°C 100% 1.3 mph SW2.1 kmh SW 2.5 mph4.0 kmh 30.04 in1017.3 mb 0.00 in0.0 mm 0.00 in0.0 mm 0.19 in4.8 mm
09:40 PM 52.5°F11.4°C 52.5°F11.4°C 100% 0.7 mph SW1.1 kmh SW 1.7 mph2.7 kmh 30.05 in1017.6 mb 0.00 in0.0 mm 0.00 in0.0 mm 0.19 in4.8 mm
09:50 PM 52.3°F11.3°C 52.3°F11.3°C 100% 0.5 mph SW0.8 kmh SW 1.7 mph2.7 kmh 30.06 in1017.9 mb 0.00 in0.0 mm 0.00 in0.0 mm 0.19 in4.8 mm
10:00 PM 52.2°F11.2°C 52.2°F11.2°C 100% 1.1 mph WSW1.8 kmh WSW 2.5 mph4.0 kmh 30.06 in1017.9 mb 0.00 in0.0 mm 0.00 in0.0 mm 0.19 in4.8 mm
10:10 PM 52.0°F11.1°C 52.0°F11.1°C 100% 1.6 mph WSW2.6 kmh WSW 3.4 mph5.5 kmh 30.06 in1017.9 mb 0.00 in0.0 mm 0.00 in0.0 mm 0.19 in4.8 mm
10:20 PM 51.8°F11.0°C 51.8°F11.0°C 100% 1.2 mph SW1.9 kmh SW 2.5 mph4.0 kmh 30.05 in1017.6 mb 0.00 in0.0 mm 0.00 in0.0 mm 0.19 in4.8 mm
10:30 PM 51.4°F10.8°C 51.4°F10.8°C 100% 0.6 mph WSW1.0 kmh WSW 2.5 mph4.0 kmh 30.06 in1017.9 mb 0.00 in0.0 mm 0.00 in0.0 mm 0.19 in4.8 mm
10:40 PM 51.1°F10.6°C 51.1°F10.6°C 100% 0.6 mph N1.0 kmh N 2.5 mph4.0 kmh 30.07 in1018.3 mb 0.00 in0.0 mm 0.00 in0.0 mm 0.19 in4.8 mm
10:50 PM 50.7°F10.4°C 50.7°F10.4°C 100% Calm Calm 0.7 mph1.1 kmh 30.07 in1018.3 mb 0.00 in0.0 mm 0.00 in0.0 mm 0.19 in4.8 mm
11:00 PM 50.5°F10.3°C 50.5°F10.3°C 100% Calm Calm 0.7 mph1.1 kmh 30.07 in1018.3 mb 0.00 in0.0 mm 0.00 in0.0 mm 0.16 in4.1 mm
11:10 PM 50.4°F10.2°C 50.4°F10.2°C 100% 1.0 mph SW1.6 kmh SW 2.5 mph4.0 kmh 30.07 in1018.3 mb 0.00 in0.0 mm 0.00 in0.0 mm 0.16 in4.1 mm
11:20 PM 50.4°F10.2°C 50.4°F10.2°C 100% 1.7 mph SSW2.7 kmh SSW 3.4 mph5.5 kmh 30.07 in1018.3 mb 0.00 in0.0 mm 0.00 in0.0 mm 0.16 in4.1 mm
11:30 PM 50.2°F10.1°C 50.2°F10.1°C 100% 1.9 mph SSW3.1 kmh SSW 3.4 mph5.5 kmh 30.08 in1018.6 mb 0.00 in0.0 mm 0.00 in0.0 mm 0.16 in4.1 mm
11:40 PM 50.2°F10.1°C 50.2°F10.1°C 100% 0.9 mph SW1.4 kmh SW 3.4 mph5.5 kmh 30.09 in1019.0 mb 0.00 in0.0 mm 0.00 in0.0 mm 0.16 in4.1 mm
11:50 PM 49.8°F9.9°C 49.8°F9.9°C 100% 1.2 mph SW1.9 kmh SW 2.5 mph4.0 kmh 30.09 in1019.0 mb 0.00 in0.0 mm 0.00 in0.0 mm 0.16 in4.1 mm